createdAt,value
2017-10-06T00:01:05.928Z,69.10
2017-10-06T00:03:33.552Z,69.20
2017-10-06T00:06:01.051Z,69.40
2017-10-06T00:08:28.556Z,69.10
2017-10-06T00:10:56.057Z,69.20
2017-10-06T00:13:23.580Z,69.20
2017-10-06T00:15:51.852Z,70.00
2017-10-06T00:18:19.770Z,69.20
2017-10-06T00:20:47.279Z,69.30
2017-10-06T00:23:15.200Z,69.40
2017-10-06T00:25:42.716Z,69.30
2017-10-06T00:28:10.219Z,69.40
2017-10-06T00:30:37.737Z,69.30
2017-10-06T00:33:05.240Z,69.10
2017-10-06T00:35:33.168Z,68.70
2017-10-06T00:38:01.063Z,68.40
2017-10-06T00:40:28.565Z,68.40
2017-10-06T00:42:56.076Z,68.30
2017-10-06T00:45:25.102Z,68.80
2017-10-06T00:47:53.373Z,68.20
2017-10-06T00:50:20.908Z,68.20
2017-10-06T00:52:48.410Z,68.10
2017-10-06T00:55:17.049Z,68.10
2017-10-06T00:57:44.548Z,68.20
2017-10-06T01:00:12.048Z,68.40
2017-10-06T01:02:39.560Z,68.50
2017-10-06T01:05:08.212Z,68.40
2017-10-06T01:07:35.716Z,68.20
2017-10-06T01:10:03.227Z,68.40
2017-10-06T01:12:30.733Z,68.50
2017-10-06T01:14:58.247Z,68.50
2017-10-06T01:17:26.525Z,68.60
2017-10-06T01:19:55.171Z,69.70
2017-10-06T01:22:23.464Z,69.30
2017-10-06T01:24:50.974Z,68.70
2017-10-06T01:27:21.032Z,69.40
2017-10-06T01:29:48.546Z,68.80
2017-10-06T01:32:16.076Z,68.80
2017-10-06T01:34:43.588Z,68.70
2017-10-06T01:37:11.862Z,68.80
2017-10-06T01:39:40.529Z,69.50
2017-10-06T01:42:08.032Z,68.90
2017-10-06T01:44:35.540Z,68.80
2017-10-06T01:47:03.079Z,68.60
2017-10-06T01:49:30.600Z,68.70
2017-10-06T01:51:58.100Z,68.90
2017-10-06T01:54:25.609Z,69.00
2017-10-06T01:56:53.111Z,68.90
2017-10-06T01:59:21.384Z,69.00
2017-10-06T02:01:48.903Z,69.20
2017-10-06T02:04:16.412Z,69.20
2017-10-06T02:06:43.928Z,69.00
2017-10-06T02:09:11.431Z,69.10
2017-10-06T02:11:40.080Z,68.90
2017-10-06T02:14:08.728Z,69.00
2017-10-06T02:16:36.996Z,68.80
2017-10-06T02:19:05.271Z,68.80
2017-10-06T02:21:32.807Z,69.00
2017-10-06T02:24:00.324Z,69.20
2017-10-06T02:26:27.826Z,69.40
2017-10-06T02:28:55.343Z,69.60
2017-10-06T02:31:23.251Z,69.80
2017-10-06T02:33:50.752Z,69.90
2017-10-06T02:36:19.396Z,70.10
2017-10-06T02:38:46.896Z,70.30
2017-10-06T02:41:14.788Z,70.20
2017-10-06T02:43:42.311Z,70.20
2017-10-06T02:46:09.816Z,70.20
2017-10-06T02:48:37.338Z,70.20
2017-10-06T02:51:04.847Z,70.10
2017-10-06T02:53:32.353Z,70.10
2017-10-06T02:56:00.624Z,69.60
2017-10-06T02:58:28.909Z,69.40
2017-10-06T03:00:56.422Z,69.20
2017-10-06T03:03:23.924Z,69.20
2017-10-06T03:05:52.200Z,69.20
2017-10-06T03:08:19.712Z,69.20
2017-10-06T03:10:47.220Z,69.30
2017-10-06T03:13:14.728Z,69.20
2017-10-06T03:15:42.230Z,69.10
2017-10-06T03:18:09.824Z,69.30
2017-10-06T03:23:06.192Z,69.40
2017-10-06T03:25:33.695Z,69.40
2017-10-06T03:28:01.976Z,69.10
2017-10-06T03:30:29.893Z,69.00
2017-10-06T03:32:57.436Z,69.10
2017-10-06T03:35:25.712Z,69.40
2017-10-06T03:37:54.012Z,69.40
2017-10-06T03:40:21.538Z,68.80
2017-10-06T03:42:49.467Z,68.60
2017-10-06T03:45:17.372Z,68.60
2017-10-06T03:47:45.649Z,69.00
2017-10-06T03:50:13.183Z,68.40
2017-10-06T03:52:40.688Z,68.40
2017-10-06T03:55:08.199Z,68.30
2017-10-06T03:57:36.470Z,68.00
2017-10-06T04:00:03.974Z,67.90
2017-10-06T04:02:31.496Z,67.80
2017-10-06T04:04:59.763Z,67.70
2017-10-06T04:07:28.048Z,67.50
2017-10-06T04:09:56.323Z,67.20
2017-10-06T04:12:24.592Z,68.00
2017-10-06T04:14:52.866Z,68.30
2017-10-06T04:17:21.872Z,67.90
2017-10-06T04:19:49.389Z,68.20
2017-10-06T04:22:18.036Z,68.20
2017-10-06T04:24:45.957Z,68.20
2017-10-06T04:27:14.603Z,68.30
2017-10-06T04:29:42.113Z,68.40
2017-10-06T04:32:09.640Z,68.50
2017-10-06T04:34:37.144Z,68.40
2017-10-06T04:37:04.659Z,68.70
2017-10-06T04:39:32.936Z,68.40
2017-10-06T04:42:01.219Z,69.00
2017-10-06T04:44:28.724Z,68.60
2017-10-06T04:46:56.227Z,68.70
2017-10-06T04:49:23.735Z,68.60
2017-10-06T04:51:51.256Z,68.60
2017-10-06T04:54:18.755Z,68.60
2017-10-06T04:56:46.266Z,68.60
2017-10-06T04:59:14.171Z,68.60
2017-10-06T05:01:42.199Z,68.70
2017-10-06T05:04:09.741Z,69.00
2017-10-06T05:06:37.264Z,69.20
2017-10-06T05:09:04.968Z,69.20
2017-10-06T05:11:33.241Z,69.30
2017-10-06T05:14:00.755Z,69.30
2017-10-06T05:16:29.407Z,69.30
2017-10-06T05:18:57.692Z,68.90
2017-10-06T05:21:25.596Z,68.90
2017-10-06T05:23:53.111Z,69.00
2017-10-06T05:26:20.611Z,69.10
2017-10-06T05:28:48.128Z,69.20
2017-10-06T05:31:15.632Z,69.20
2017-10-06T05:33:44.304Z,69.20
2017-10-06T05:36:11.812Z,69.00
2017-10-06T05:38:39.340Z,69.00
2017-10-06T05:41:07.609Z,69.00
2017-10-06T05:43:35.537Z,68.90
2017-10-06T05:48:32.339Z,68.80
2017-10-06T05:51:00.609Z,68.70
2017-10-06T05:53:28.128Z,68.90
2017-10-06T05:55:55.636Z,68.90
2017-10-06T05:58:23.908Z,68.90
2017-10-06T06:00:51.423Z,69.30
2017-10-06T06:03:18.924Z,69.50
2017-10-06T06:05:46.441Z,69.80
2017-10-06T06:08:13.947Z,69.80
2017-10-06T06:10:41.963Z,70.20
2017-10-06T06:13:09.472Z,70.30
2017-10-06T06:15:37.755Z,71.10
2017-10-06T06:18:06.392Z,70.50
2017-10-06T06:20:33.981Z,70.40
2017-10-06T06:23:02.988Z,71.00
2017-10-06T06:25:31.264Z,71.00
2017-10-06T06:28:00.294Z,70.80
2017-10-06T06:30:28.213Z,70.30
2017-10-06T06:32:57.257Z,70.40
2017-10-06T06:35:24.768Z,70.30
2017-10-06T06:37:53.424Z,70.50
2017-10-06T06:40:20.932Z,70.70
2017-10-06T06:42:48.436Z,70.90
2017-10-06T06:45:15.937Z,71.20
2017-10-06T06:47:43.464Z,71.20
2017-10-06T06:50:11.365Z,71.10
2017-10-06T06:52:38.884Z,70.80
2017-10-06T06:55:06.383Z,70.90
2017-10-06T06:57:34.669Z,71.00
2017-10-06T07:00:02.576Z,70.90
2017-10-06T07:02:30.851Z,71.70
2017-10-06T07:04:59.124Z,71.70
2017-10-06T07:07:27.760Z,70.90
2017-10-06T07:09:55.255Z,71.10
2017-10-06T07:12:23.524Z,71.80
2017-10-06T07:14:51.804Z,71.70
2017-10-06T07:17:20.080Z,71.30
2017-10-06T07:19:49.096Z,70.50
2017-10-06T07:22:16.708Z,71.10
2017-10-06T07:24:45.355Z,71.10
2017-10-06T07:27:13.627Z,70.90
2017-10-06T07:29:41.941Z,71.00
2017-10-06T07:32:10.212Z,70.60
2017-10-06T07:34:38.128Z,70.20
2017-10-06T07:37:05.648Z,69.90
2017-10-06T07:39:34.671Z,69.80
2017-10-06T07:42:02.948Z,69.70
2017-10-06T07:44:30.844Z,69.50
2017-10-06T07:46:58.348Z,68.90
2017-10-06T07:49:25.860Z,69.20
2017-10-06T07:51:53.364Z,69.00
2017-10-06T07:54:21.638Z,69.20
2017-10-06T07:56:49.160Z,69.00
2017-10-06T07:59:17.435Z,69.10
2017-10-06T08:01:45.854Z,69.30
2017-10-06T08:04:13.452Z,68.70
2017-10-06T08:06:41.004Z,68.80
2017-10-06T08:09:09.649Z,69.30
2017-10-06T08:11:37.173Z,68.80
2017-10-06T08:14:04.713Z,68.70
2017-10-06T08:16:32.620Z,68.60
2017-10-06T08:19:00.136Z,68.40
2017-10-06T08:21:29.156Z,68.20
2017-10-06T08:23:56.664Z,67.90
2017-10-06T08:26:24.173Z,67.50
2017-10-06T08:28:51.672Z,67.70
2017-10-06T08:31:19.196Z,67.30
2017-10-06T08:33:46.723Z,67.00
2017-10-06T08:36:14.244Z,66.90
2017-10-06T08:38:42.157Z,66.80
2017-10-06T08:41:09.666Z,67.00
2017-10-06T08:43:37.207Z,66.70
2017-10-06T08:46:04.716Z,66.20
2017-10-06T08:48:32.636Z,66.80
2017-10-06T08:51:00.908Z,66.50
2017-10-06T08:53:28.420Z,65.70
2017-10-06T08:55:55.922Z,65.30
2017-10-06T08:58:23.469Z,63.80
2017-10-06T09:00:51.748Z,64.40
2017-10-06T09:03:19.260Z,64.60
2017-10-06T09:05:47.534Z,65.30
2017-10-06T09:08:16.556Z,64.30
2017-10-06T09:10:44.868Z,63.80
2017-10-06T09:13:13.883Z,64.20
2017-10-06T09:15:41.392Z,64.20
2017-10-06T09:18:08.903Z,63.70
2017-10-06T09:20:37.172Z,61.20
2017-10-06T09:25:34.300Z,59.90
2017-10-06T09:28:02.591Z,60.20
2017-10-06T09:30:30.097Z,59.60
2017-10-06T09:32:57.610Z,59.70
2017-10-06T09:35:26.264Z,60.10
2017-10-06T09:37:53.759Z,60.40
2017-10-06T09:40:22.059Z,59.90
2017-10-06T09:42:49.960Z,60.10
2017-10-06T09:45:18.244Z,60.40
2017-10-06T09:47:45.761Z,61.10
2017-10-06T09:50:13.284Z,61.20
2017-10-06T09:52:40.799Z,61.20
2017-10-06T09:55:09.843Z,61.80
2017-10-06T09:57:37.344Z,61.20
2017-10-06T10:00:05.651Z,60.60
2017-10-06T10:02:33.162Z,60.60
2017-10-06T10:05:01.829Z,59.50
2017-10-06T10:07:29.343Z,59.40
2017-10-06T10:09:56.870Z,59.90
2017-10-06T10:12:25.146Z,60.50
2017-10-06T10:14:52.673Z,59.40
2017-10-06T10:17:20.174Z,57.80
2017-10-06T10:19:47.700Z,58.40
2017-10-06T10:22:16.348Z,58.50
2017-10-06T10:24:43.880Z,58.40
2017-10-06T10:27:11.397Z,58.10
2017-10-06T10:29:38.924Z,57.40
2017-10-06T10:32:06.833Z,57.00
2017-10-06T10:34:35.096Z,56.90
2017-10-06T10:37:02.595Z,56.90
2017-10-06T10:39:30.108Z,57.30
2017-10-06T10:41:58.568Z,57.70
2017-10-06T10:44:26.844Z,58.50
2017-10-06T10:46:55.124Z,58.20
2017-10-06T10:49:23.400Z,58.00
2017-10-06T10:51:51.302Z,58.00
2017-10-06T10:54:18.795Z,58.60
2017-10-06T10:56:46.323Z,58.40
2017-10-06T10:59:13.832Z,58.80
2017-10-06T11:01:41.740Z,58.30
2017-10-06T11:04:09.244Z,58.40
2017-10-06T11:06:37.144Z,58.00
2017-10-06T11:09:04.649Z,57.70
2017-10-06T11:11:32.549Z,58.00
2017-10-06T11:18:57.772Z,57.50
2017-10-06T11:21:25.284Z,57.80
2017-10-06T11:23:53.559Z,57.60
2017-10-06T11:26:21.066Z,56.70
2017-10-06T11:28:48.575Z,56.60
2017-10-06T11:31:17.580Z,57.30
2017-10-06T11:33:45.868Z,57.50
2017-10-06T11:36:13.387Z,56.90
2017-10-06T11:38:40.911Z,56.90
2017-10-06T11:41:08.432Z,56.30
2017-10-06T11:46:04.863Z,56.40
2017-10-06T11:48:32.372Z,56.50
2017-10-06T11:51:00.660Z,56.90
2017-10-06T11:53:28.560Z,57.00
2017-10-06T11:55:56.849Z,57.90
2017-10-06T11:58:24.355Z,57.50
2017-10-06T12:00:51.884Z,57.90
2017-10-06T12:03:19.387Z,57.80
2017-10-06T12:05:47.696Z,58.20
2017-10-06T12:08:15.990Z,57.60
2017-10-06T12:10:43.521Z,58.80
2017-10-06T12:13:12.536Z,59.80
2017-10-06T12:15:40.069Z,59.70
2017-10-06T12:18:07.960Z,60.00
2017-10-06T12:20:35.502Z,59.90
2017-10-06T12:23:04.148Z,60.00
2017-10-06T12:25:32.435Z,61.10
2017-10-06T12:28:00.332Z,59.40
2017-10-06T12:30:27.840Z,59.30
2017-10-06T12:32:55.346Z,59.10
2017-10-06T12:35:22.853Z,59.00
2017-10-06T12:37:51.505Z,58.90
2017-10-06T12:40:19.022Z,58.60
2017-10-06T12:42:46.548Z,57.60
2017-10-06T12:45:14.450Z,57.40
2017-10-06T12:47:41.985Z,57.10
2017-10-06T12:50:09.494Z,57.00
2017-10-06T12:52:37.414Z,57.10
2017-10-06T12:55:04.923Z,56.80
2017-10-06T12:57:32.472Z,56.40
2017-10-06T12:59:59.992Z,56.30
2017-10-06T13:02:28.278Z,56.90
2017-10-06T13:04:55.780Z,56.40
2017-10-06T13:07:24.049Z,56.30
2017-10-06T13:09:52.328Z,55.70
2017-10-06T13:12:20.603Z,55.70
2017-10-06T13:14:49.648Z,56.30
2017-10-06T13:17:17.161Z,57.10
2017-10-06T13:19:44.684Z,58.40
2017-10-06T13:22:12.198Z,59.60
2017-10-06T13:24:39.728Z,60.90
2017-10-06T13:27:08.012Z,61.20
2017-10-06T13:29:35.541Z,61.60
2017-10-06T13:32:03.052Z,62.50
2017-10-06T13:34:31.744Z,62.60
2017-10-06T13:36:59.654Z,62.70
2017-10-06T13:39:27.556Z,63.10
2017-10-06T13:41:55.066Z,63.30
2017-10-06T13:44:22.977Z,63.60
2017-10-06T13:46:50.493Z,64.10
2017-10-06T13:49:18.026Z,64.10
2017-10-06T13:51:45.540Z,64.40
2017-10-06T13:54:13.805Z,64.80
2017-10-06T13:56:41.350Z,65.10
2017-10-06T14:01:37.740Z,65.70
2017-10-06T14:04:05.250Z,65.90
2017-10-06T14:06:33.188Z,66.40
2017-10-06T14:09:01.460Z,67.10
2017-10-06T14:11:28.995Z,66.70
2017-10-06T14:13:56.892Z,67.00
2017-10-06T14:16:24.427Z,67.10
2017-10-06T14:18:52.327Z,67.20
2017-10-06T14:21:19.852Z,67.50
2017-10-06T14:23:47.375Z,67.20
2017-10-06T14:26:15.684Z,67.50
2017-10-06T14:31:14.061Z,67.20
2017-10-06T14:33:42.328Z,66.10
2017-10-06T14:36:09.860Z,66.30
2017-10-06T14:38:37.368Z,66.90
2017-10-06T14:41:04.908Z,67.50
2017-10-06T14:46:02.032Z,69.40
2017-10-06T14:48:29.529Z,69.50
2017-10-06T14:50:57.058Z,69.90
2017-10-06T14:53:24.585Z,70.30
2017-10-06T14:55:53.599Z,70.70
2017-10-06T14:58:22.418Z,70.70
2017-10-06T15:00:49.920Z,71.00
2017-10-06T15:03:18.236Z,71.20
2017-10-06T15:05:46.137Z,71.00
2017-10-06T15:08:14.068Z,70.90
2017-10-06T15:13:10.484Z,71.00
2017-10-06T15:15:38.828Z,71.00
2017-10-06T15:20:35.212Z,70.70
2017-10-06T15:23:03.492Z,70.90
2017-10-06T15:27:59.868Z,70.90
2017-10-06T15:30:28.523Z,71.60
2017-10-06T15:32:56.800Z,71.70
2017-10-06T15:35:25.212Z,70.90
2017-10-06T15:37:53.484Z,71.00
2017-10-06T15:40:21.008Z,71.10
2017-10-06T15:42:49.663Z,71.10
2017-10-06T15:47:46.064Z,71.00
2017-10-06T15:50:13.607Z,71.30
2017-10-06T15:52:41.099Z,71.40
2017-10-06T15:55:09.372Z,71.10
2017-10-06T15:57:38.028Z,69.80
2017-10-06T16:00:06.679Z,70.70
2017-10-06T16:02:34.203Z,71.00
2017-10-06T16:05:02.108Z,71.20
2017-10-06T16:07:29.628Z,71.00
2017-10-06T16:09:57.123Z,71.00
2017-10-06T16:12:24.648Z,71.10
2017-10-06T16:17:21.854Z,71.90
2017-10-06T16:19:49.372Z,71.00
2017-10-06T16:22:18.400Z,71.00
2017-10-06T16:24:45.907Z,71.20
2017-10-06T16:27:14.183Z,70.90
2017-10-06T16:29:42.104Z,70.80
2017-10-06T16:32:10.020Z,71.00
2017-10-06T16:34:38.311Z,71.90
2017-10-06T16:37:05.822Z,71.60
2017-10-06T16:39:33.358Z,71.90
2017-10-06T16:42:00.860Z,72.20
2017-10-06T16:44:29.151Z,72.70
2017-10-06T16:46:56.672Z,72.30
2017-10-06T16:49:24.213Z,72.40
2017-10-06T16:51:51.724Z,72.30
2017-10-06T16:54:19.640Z,72.60
2017-10-06T16:56:47.152Z,72.60
2017-10-06T16:59:14.653Z,72.40
2017-10-06T17:01:42.540Z,72.20
2017-10-06T17:04:10.828Z,72.60
2017-10-06T17:06:39.128Z,72.00
2017-10-06T17:09:06.632Z,71.70
2017-10-06T17:11:34.168Z,71.90
2017-10-06T17:14:02.445Z,71.90
2017-10-06T17:16:29.982Z,71.70
2017-10-06T17:18:57.481Z,72.00
2017-10-06T17:21:25.008Z,72.10
2017-10-06T17:23:52.524Z,72.10
2017-10-06T17:26:20.097Z,72.10
2017-10-06T17:28:47.608Z,72.10
2017-10-06T17:31:15.512Z,72.10
2017-10-06T17:33:43.023Z,72.20
2017-10-06T17:36:10.530Z,72.10
2017-10-06T17:38:38.064Z,72.10
2017-10-06T17:41:05.578Z,71.90
2017-10-06T17:43:33.491Z,71.60
2017-10-06T17:46:01.000Z,71.90
2017-10-06T17:48:29.292Z,72.50
2017-10-06T17:50:56.784Z,72.10
2017-10-06T17:53:25.080Z,72.30
2017-10-06T17:55:52.580Z,72.30
2017-10-06T17:58:20.666Z,72.30
2017-10-06T18:00:48.168Z,72.40
2017-10-06T18:05:44.529Z,72.50
2017-10-06T18:10:41.688Z,73.40
2017-10-06T18:13:10.038Z,73.50
2017-10-06T18:15:38.316Z,72.90
2017-10-06T18:18:07.332Z,72.70
2017-10-06T18:20:35.264Z,72.60
2017-10-06T18:23:03.168Z,72.60
2017-10-06T18:25:30.705Z,72.90
2017-10-06T18:27:59.000Z,73.50
2017-10-06T18:30:26.504Z,73.20
2017-10-06T18:35:22.911Z,73.40
2017-10-06T18:37:50.456Z,73.70
2017-10-06T18:40:17.968Z,73.70
2017-10-06T18:42:45.489Z,73.60
2017-10-06T18:45:13.764Z,73.80
2017-10-06T18:47:41.292Z,73.80
2017-10-06T18:50:08.784Z,73.70
2017-10-06T18:52:36.316Z,73.90
2017-10-06T18:55:03.830Z,74.10
2017-10-06T18:57:31.360Z,74.10
2017-10-06T18:59:59.264Z,74.10
2017-10-06T19:02:27.188Z,73.90
2017-10-06T19:04:54.688Z,73.80
2017-10-06T19:07:22.958Z,74.60
2017-10-06T19:09:50.864Z,74.10
2017-10-06T19:12:18.359Z,74.30
2017-10-06T19:14:45.908Z,74.30
2017-10-06T19:17:14.188Z,74.30
2017-10-06T19:19:41.717Z,74.30
2017-10-06T19:22:09.247Z,74.60
2017-10-06T19:24:37.275Z,74.60
2017-10-06T19:29:33.654Z,74.50
2017-10-06T19:34:31.172Z,74.40
2017-10-06T19:39:27.547Z,74.40
2017-10-06T19:41:55.819Z,74.50
2017-10-06T19:44:23.320Z,74.70
2017-10-06T19:46:50.815Z,74.70
2017-10-06T19:49:19.088Z,75.40
2017-10-06T19:51:48.088Z,74.90
2017-10-06T19:54:15.598Z,74.90
2017-10-06T19:56:43.124Z,74.80
2017-10-06T19:59:10.624Z,75.10
2017-10-06T20:01:38.144Z,74.90
2017-10-06T20:04:06.787Z,74.90
2017-10-06T20:06:35.078Z,75.90
2017-10-06T20:09:02.595Z,75.40
2017-10-06T20:11:30.900Z,76.10
2017-10-06T20:13:58.392Z,75.50
2017-10-06T20:16:26.675Z,75.60
2017-10-06T20:18:54.952Z,75.20
2017-10-06T20:23:51.297Z,75.20
2017-10-06T20:26:18.804Z,75.20
2017-10-06T20:28:46.700Z,75.20
2017-10-06T20:31:14.222Z,75.00
2017-10-06T20:36:10.599Z,74.90
2017-10-06T20:38:38.130Z,74.60
2017-10-06T20:41:07.132Z,74.40
2017-10-06T20:43:35.794Z,74.20
2017-10-06T20:46:04.088Z,74.40
2017-10-06T20:48:31.634Z,74.50
2017-10-06T20:50:59.133Z,74.50
2017-10-06T20:53:27.060Z,74.30
2017-10-06T20:55:54.561Z,74.30
2017-10-06T20:58:22.484Z,74.60
2017-10-06T21:00:50.043Z,74.80
2017-10-06T21:03:17.580Z,74.90
2017-10-06T21:05:45.854Z,74.80
2017-10-06T21:08:13.764Z,74.90
2017-10-06T21:10:42.408Z,74.80
2017-10-06T21:13:09.932Z,74.80
2017-10-06T21:15:38.212Z,75.50
2017-10-06T21:18:05.743Z,74.90
2017-10-06T21:20:34.020Z,74.90
2017-10-06T21:23:01.536Z,75.00
2017-10-06T21:25:29.040Z,75.20
2017-10-06T21:27:57.344Z,75.70
2017-10-06T21:30:24.855Z,75.10
2017-10-06T21:32:53.143Z,75.30
2017-10-06T21:35:20.668Z,75.20
2017-10-06T21:37:48.198Z,75.10
2017-10-06T21:40:15.713Z,75.00
2017-10-06T21:42:43.244Z,75.00
2017-10-06T21:45:10.760Z,75.00
2017-10-06T21:47:38.265Z,75.00
2017-10-06T21:50:06.543Z,74.80
2017-10-06T21:52:34.831Z,74.60
2017-10-06T21:55:02.341Z,74.70
2017-10-06T21:57:29.846Z,75.00
2017-10-06T21:59:57.360Z,75.00
2017-10-06T22:02:24.867Z,75.20
2017-10-06T22:04:52.376Z,75.50
2017-10-06T22:07:19.881Z,75.70
2017-10-06T22:12:16.639Z,75.20
2017-10-06T22:14:44.167Z,75.20
2017-10-06T22:17:11.680Z,75.50
2017-10-06T22:19:39.197Z,75.50
2017-10-06T22:22:06.707Z,75.50
2017-10-06T22:24:34.625Z,75.50
2017-10-06T22:27:02.528Z,75.70
2017-10-06T22:29:30.049Z,75.80
2017-10-06T22:31:57.560Z,75.70
2017-10-06T22:34:25.857Z,76.00
2017-10-06T22:36:53.363Z,76.00
2017-10-06T22:39:20.883Z,76.10
2017-10-06T22:41:48.378Z,76.10
2017-10-06T22:44:15.904Z,76.00
2017-10-06T22:46:43.402Z,76.00
2017-10-06T22:49:11.691Z,76.10
2017-10-06T22:51:39.196Z,76.20
2017-10-06T22:54:06.727Z,76.30
2017-10-06T22:56:34.242Z,76.10
2017-10-06T22:59:02.179Z,76.00
2017-10-06T23:03:58.558Z,75.60
2017-10-06T23:06:26.051Z,75.80
2017-10-06T23:08:53.577Z,75.80
2017-10-06T23:11:21.087Z,75.90
2017-10-06T23:13:48.628Z,75.90
2017-10-06T23:16:16.122Z,76.00
2017-10-06T23:18:44.035Z,76.00
2017-10-06T23:21:11.548Z,76.10
2017-10-06T23:23:39.824Z,76.70
2017-10-06T23:26:07.319Z,76.30
2017-10-06T23:28:35.968Z,76.20
2017-10-06T23:31:03.464Z,76.00
2017-10-06T23:33:30.984Z,76.10
2017-10-06T23:35:58.485Z,76.30
2017-10-06T23:38:26.778Z,76.20
2017-10-06T23:40:54.275Z,76.30
2017-10-06T23:43:21.807Z,76.40
2017-10-06T23:45:50.083Z,77.10
2017-10-06T23:48:18.359Z,77.10
2017-10-06T23:50:46.986Z,76.50
2017-10-06T23:55:43.454Z,76.30
2017-10-06T23:58:10.944Z,76.50
